METAR Data
IDs: Format: Raw Decoded Include TAF

Data at: 0915 UTC 20 Sep 2018

PAKP 200856Z AUTO 16005KT 10SM CLR 03/02 A3005 RMK AO2 SLP209 60000 T00330017 401000000 58003
PAKP 200756Z AUTO 19005KT 10SM FEW060 OVC075 04/03 A3006 RMK AO2 SLP213 T00390028
PAKP 200656Z AUTO 20005KT 10SM FEW049 SCT060 OVC075 04/03 A3006 RMK AO2 RAE53 SLP213 P0000 T00440028
PAKP 200556Z AUTO 23008KT 10SM -RA FEW027 BKN050 OVC065 05/03 A3006 RMK AO2 RAB16 SLP215 P0000 60000 T00500033 10089 20050 53002
PAKP 200456Z AUTO 20008KT 10SM FEW026 OVC060 06/03 A3006 RMK AO2 SLP214 T00560028
PAKP 200356Z AUTO 19007KT 10SM OVC060 06/03 A3006 RMK AO2 SLP215 T00560033
PAKP 200256Z AUTO 22009KT 10SM OVC080 07/03 A3005 RMK AO2 RAE21 SLP214 P0000 60000 T00670028 58004
PAKP 200156Z AUTO 23010KT 10SM -RA FEW033 BKN043 OVC060 07/04 A3006 RMK AO2 RAB45 SLP215 P0000 T00720039
PAKP 200056Z AUTO 23008KT 10SM FEW042 OVC070 09/02 A3006 RMK AO2 SLP212 T00890022
PAKP 192356Z AUTO 20008KT 9SM FEW046 09/02 A3007 RMK AO2 SLP214 T00890017 10100 20033 55007
PAKP 192256Z AUTO 21011G16KT 10SM BKN065 BKN090 10/02 A3006 RMK AO2 SLP213 T01000017
PAKP 192156Z AUTO 21005KT 10SM OVC046 08/02 A3008 RMK AO2 SLP219 T00830022
PAKP 192056Z AUTO 19008KT 10SM OVC048 07/03 A3009 RMK AO2 SLP223 T00720033 58008
PAKP 191956Z AUTO 20007KT 10SM BKN044 OVC085 06/02 A3010 RMK AO2 SLP229 T00610022
PAKP 191856Z AUTO 21003KT 10SM OVC038 05/02 A3011 RMK AO2 SLP232 T00500022
PAKP 191756Z AUTO 20003KT 10SM OVC038 03/02 A3011 RMK AO2 SLP235 60000 T00330022 10033 20000 58002
PAKP 191656Z AUTO 20004KT 10SM OVC060 02/01 A3012 RMK AO2 UPB28E30RAB30E46 SLP237 P0000 T00220011 FZRANO
PAKP 191556Z AUTO 00000KT 10SM FEW040 BKN055 OVC090 01/M01 A3012 RMK AO2 SLP237 T00061006 FZRANO
PAKP 191456Z AUTO 00000KT 10SM OVC080 00/M01 A3012 RMK AO2 SLP236 T00001011 55003 FZRANO
PAKP 191356Z AUTO 00000KT 10SM OVC090 01/M01 A3012 RMK AO2 SLP233 T00111006 FZRANO
PAKP 191256Z AUTO 19003KT 10SM BKN060 OVC095 02/00 A3013 RMK AO2 SLP234 T00170000 FZRANO
PAKP 191156Z AUTO 00000KT 10SM FEW080 OVC095 02/00 A3013 RMK AO2 SLP236 T00170000 10033 20011 58003 FZRANO
PAKP 191056Z AUTO 00000KT 10SM BKN060 OVC090 02/00 A3014 RMK AO2 SLP238 T00220000 FZRANO
PAKP 190956Z AUTO 00000KT 10SM FEW043 OVC065 03/00 A3014 RMK AO2 SLP238 T00280000
PAKP 190856Z AUTO 00000KT 10SM BKN043 OVC080 02/00 A3014 RMK AO2 SLP240 T00220000 401061028 50001 FZRANO
PAKP 190756Z AUTO 00000KT 10SM FEW043 OVC080 02/M01 A3015 RMK AO2 SLP243 T00171006 FZRANO
PAKP 190656Z AUTO 00000KT 10SM SCT085 02/M01 A3014 RMK AO2 SLP242 T00171011 FZRANO
PAKP 190556Z AUTO 23003KT 10SM CLR 03/00 A3014 RMK AO2 SLP242 T00330000 10106 20028 51004
PAKP 190456Z AUTO 00000KT 10SM FEW060 04/M01 A3014 RMK AO2 SLP244 T00391006
PAKP 190356Z AUTO 19006KT 10SM CLR 06/01 A3013 RMK AO2 SLP239 T00610006
PAKP 190256Z AUTO 23007KT 10SM FEW070 09/00 A3012 RMK AO2 SLP236 T00890000 58005
PAKP 190156Z AUTO 22006KT 10SM BKN049 OVC065 09/00 A3013 RMK AO2 SLP238 T00940000
PAKP 190056Z AUTO 22008KT 10SM SCT046 10/01 A3013 RMK AO2 SLP239 T01000006
PAKP 182356Z AUTO 21007KT 9SM BKN046 11/00 A3014 RMK AO2 SLP242 T01060000 10106 20044 58003
PAKP 182256Z AUTO 19009KT 10SM CLR 10/00 A3014 RMK AO2 SLP244 T01000000
PAKP 182156Z AUTO 21010KT 10SM CLR 09/00 A3015 RMK AO2 SLP245 T00890000